Time;durP1;ratioP1;P1;durP2;ratioP2;P2;SDS_P1;SDS_P2;PMS_P1;PMS_P2;Temp;Humidity;BMP_temperature;BMP_pressure;BME280_temperature;BME280_humidity;BME280_pressure;Samples;Min_cycle;Max_cycle;Signal;HPM_P1;HPM_P2
2023/05/01 00:01:54;;;;;;;;;;;;;;;11.92;49.29;98057.94;5077077;28;19946;-67
2023/05/01 00:04:42;;;;;;;;;;;;;;;11.76;49.38;98052.09;5072660;28;19927;-66
2023/05/01 00:07:30;;;;;;;;;;;;;;;11.63;49.95;98048.41;5077715;28;19919;-66
2023/05/01 00:10:19;;;;;;;;;;;;;;;11.51;50.00;98049.00;5078267;28;19932;-66
2023/05/01 00:13:08;;;;;;;;;;;;;;;11.50;49.85;98043.84;5076828;28;19932;-69
2023/05/01 00:15:58;;;;;;;;;;;;;;;11.53;49.93;98049.47;5060603;28;20386;-67
2023/05/01 00:18:46;;;;;;;;;;;;;;;11.64;49.40;98035.59;5071801;28;19939;-66
2023/05/01 00:21:34;;;;;;;;;;;;;;;11.63;49.37;98037.50;5077594;28;20557;-66
2023/05/01 00:24:22;;;;;;;;;;;;;;;11.74;48.85;98029.84;5078119;28;20226;-67
2023/05/01 00:27:11;;;;;;;;;;;;;;;11.52;48.88;98028.81;5062252;28;19920;-66
2023/05/01 00:29:59;;;;;;;;;;;;;;;11.43;49.42;98029.91;5074169;28;19928;-67
2023/05/01 00:32:49;;;;;;;;;;;;;;;11.47;49.22;98026.25;5071622;28;20020;-66
2023/05/01 00:35:37;;;;;;;;;;;;;;;11.45;49.03;98016.78;5079843;28;20042;-67
2023/05/01 00:38:25;;;;;;;;;;;;;;;11.38;49.12;98022.69;5077870;28;19985;-70
2023/05/01 00:41:13;;;;;;;;;;;;;;;11.52;48.73;98017.94;5060422;28;19936;-68
2023/05/01 00:44:01;;;;;;;;;;;;;;;11.43;48.57;98010.84;5064668;28;20292;-67
2023/05/01 00:46:49;;;;;;;;;;;;;;;11.39;49.25;97999.78;5077919;28;19924;-68
2023/05/01 00:49:39;;;;;;;;;;;;;;;11.31;49.27;98000.56;5090446;28;19978;-67
2023/05/01 00:52:27;;;;;;;;;;;;;;;11.28;48.86;97998.47;5075379;28;20272;-73
2023/05/01 00:55:15;;;;;;;;;;;;;;;11.32;49.50;97998.66;5065131;28;20054;-66
2023/05/01 00:58:03;;;;;;;;;;;;;;;11.30;49.33;97998.97;5064137;28;20038;-66
2023/05/01 01:00:51;;;;;;;;;;;;;;;11.49;48.20;97999.50;5060570;28;20373;-66
2023/05/01 01:03:42;;;;;;;;;;;;;;;11.22;48.55;97997.00;5085378;28;20057;-67
2023/05/01 01:06:34;;;;;;;;;;;;;;;11.15;49.12;97988.50;5070623;28;19920;-67
2023/05/01 01:09:26;;;;;;;;;;;;;;;11.33;48.80;97987.44;5061039;28;19944;-67
2023/05/01 01:12:16;;;;;;;;;;;;;;;11.25;48.63;97989.03;5082544;28;19932;-66
2023/05/01 01:15:10;;;;;;;;;;;;;;;11.12;49.14;97980.97;5089324;27;19921;-68
2023/05/01 01:17:59;;;;;;;;;;;;;;;11.14;48.71;97978.75;5053814;28;19925;-66
2023/05/01 01:20:49;;;;;;;;;;;;;;;11.27;48.67;97975.13;5038846;28;19997;-66
2023/05/01 01:23:52;;;;;;;;;;;;;;;11.18;48.69;97969.63;5050899;28;20473;-67
2023/05/01 01:26:50;;;;;;;;;;;;;;;11.23;48.40;97972.22;5049080;28;19925;-66
2023/05/01 01:29:40;;;;;;;;;;;;;;;11.24;48.34;97965.69;5052637;28;19932;-68
2023/05/01 01:32:40;;;;;;;;;;;;;;;11.07;48.92;97973.75;5052016;28;20021;-67
2023/05/01 01:35:30;;;;;;;;;;;;;;;10.95;49.46;97979.75;5049055;28;19927;-67
2023/05/01 01:38:19;;;;;;;;;;;;;;;10.88;49.48;97971.25;5052387;28;19927;-65
2023/05/01 01:41:09;;;;;;;;;;;;;;;11.09;49.09;97965.28;5041596;28;19948;-66
2023/05/01 01:43:58;;;;;;;;;;;;;;;10.81;50.06;97968.16;5062094;28;19939;-67
2023/05/01 01:46:48;;;;;;;;;;;;;;;10.69;50.39;97968.75;5046894;28;19928;-66
2023/05/01 01:49:37;;;;;;;;;;;;;;;10.79;49.92;97961.44;5050828;28;20516;-67
2023/05/01 01:52:26;;;;;;;;;;;;;;;10.67;50.10;97970.19;5050160;28;19996;-67
2023/05/01 01:55:15;;;;;;;;;;;;;;;10.58;50.02;97956.53;5050604;28;20039;-67
2023/05/01 01:58:03;;;;;;;;;;;;;;;10.65;49.67;97962.34;5046625;28;20309;-66
2023/05/01 02:00:52;;;;;;;;;;;;;;;10.76;49.66;97957.44;5048463;28;20074;-67
2023/05/01 02:03:43;;;;;;;;;;;;;;;10.57;49.83;97959.56;5043714;28;20536;-65
2023/05/01 02:06:32;;;;;;;;;;;;;;;10.53;50.14;97955.84;5055273;28;19920;-67
2023/05/01 02:09:21;;;;;;;;;;;;;;;10.44;50.36;97956.63;5061216;28;19934;-66
2023/05/01 02:12:09;;;;;;;;;;;;;;;10.48;50.46;97946.72;5046652;28;19924;-66
2023/05/01 02:14:58;;;;;;;;;;;;;;;10.47;50.39;97955.19;5060453;28;19921;-68
2023/05/01 02:17:46;;;;;;;;;;;;;;;10.53;50.35;97947.69;5070526;28;20695;-66
2023/05/01 02:20:34;;;;;;;;;;;;;;;10.45;50.17;97936.47;5071901;28;19957;-66
2023/05/01 02:23:23;;;;;;;;;;;;;;;10.47;49.98;97939.69;5092037;27;19943;-66
2023/05/01 02:26:13;;;;;;;;;;;;;;;10.57;49.88;97937.84;5067606;28;19924;-67
2023/05/01 02:29:01;;;;;;;;;;;;;;;10.47;49.77;97934.25;5080871;28;19977;-66
2023/05/01 02:31:49;;;;;;;;;;;;;;;10.45;50.03;97931.06;5079662;28;19920;-66
2023/05/01 02:34:38;;;;;;;;;;;;;;;10.39;50.49;97931.50;5070198;28;19932;-66
2023/05/01 02:37:26;;;;;;;;;;;;;;;10.45;49.97;97927.53;5070079;28;19959;-66
2023/05/01 02:40:15;;;;;;;;;;;;;;;10.43;49.85;97927.03;5064096;28;19925;-67
2023/05/01 02:43:05;;;;;;;;;;;;;;;10.36;50.35;97932.91;5084863;28;20436;-67
2023/05/01 02:45:53;;;;;;;;;;;;;;;10.37;50.09;97926.34;5073921;28;19928;-67
2023/05/01 02:48:41;;;;;;;;;;;;;;;10.28;50.27;97917.38;5100681;28;19924;-66
2023/05/01 02:51:31;;;;;;;;;;;;;;;10.14;50.82;97920.09;5120387;27;19923;-66
2023/05/01 02:54:19;;;;;;;;;;;;;;;10.23;50.28;97921.00;5097674;28;19920;-66
2023/05/01 02:57:08;;;;;;;;;;;;;;;10.34;49.95;97916.13;5096889;27;19920;-66
2023/05/01 02:59:57;;;;;;;;;;;;;;;10.13;50.46;97917.69;5085070;28;19960;-66
2023/05/01 03:02:46;;;;;;;;;;;;;;;10.13;50.64;97923.13;5099707;28;20030;-67
2023/05/01 03:05:34;;;;;;;;;;;;;;;10.03;51.16;97932.31;5089453;28;19926;-66
2023/05/01 03:08:22;;;;;;;;;;;;;;;10.10;50.73;97913.66;5101375;28;19961;-66
2023/05/01 03:11:10;;;;;;;;;;;;;;;10.13;50.91;97923.13;5098194;27;19934;-67
2023/05/01 03:13:59;;;;;;;;;;;;;;;10.06;50.80;97923.53;5097394;28;19920;-66
2023/05/01 03:16:48;;;;;;;;;;;;;;;9.89;51.61;97921.47;5099474;28;19943;-69
2023/05/01 03:19:36;;;;;;;;;;;;;;;9.91;51.43;97923.91;5090014;28;19920;-67
2023/05/01 03:22:28;;;;;;;;;;;;;;;9.83;51.53;97922.72;5070756;28;19967;-67
2023/05/01 03:25:16;;;;;;;;;;;;;;;9.73;51.63;97914.78;5063317;28;19990;-67
2023/05/01 03:28:04;;;;;;;;;;;;;;;9.79;51.74;97919.00;5076801;28;20032;-67
2023/05/01 03:30:53;;;;;;;;;;;;;;;9.99;51.16;97909.59;5054027;28;20437;-68
2023/05/01 03:33:43;;;;;;;;;;;;;;;9.79;51.94;97916.28;5075360;28;19924;-67
2023/05/01 03:36:32;;;;;;;;;;;;;;;9.88;51.32;97910.94;5076763;28;20420;-66
2023/05/01 03:39:23;;;;;;;;;;;;;;;9.86;51.28;97903.13;5061312;28;19931;-67
2023/05/01 03:42:46;;;;;;;;;;;;;;;9.83;51.18;97898.28;5073367;28;19981;-67
2023/05/01 03:45:40;;;;;;;;;;;;;;;9.71;51.93;97903.47;5076349;28;20015;-66
2023/05/01 03:48:31;;;;;;;;;;;;;;;9.82;51.52;97901.31;5068858;28;19935;-66
2023/05/01 03:51:21;;;;;;;;;;;;;;;9.59;52.17;97893.16;5084799;28;20587;-66
2023/05/01 03:54:11;;;;;;;;;;;;;;;9.57;52.39;97886.41;5073647;28;19924;-66
2023/05/01 03:57:14;;;;;;;;;;;;;;;9.50;52.53;97894.97;5086174;28;19924;-66
2023/05/01 04:00:04;;;;;;;;;;;;;;;9.49;52.68;97884.44;5068962;28;19952;-68
2023/05/01 04:03:02;;;;;;;;;;;;;;;9.48;52.57;97891.75;5074457;28;19951;-66
2023/05/01 04:05:52;;;;;;;;;;;;;;;9.53;52.17;97879.97;5070259;28;20029;-67
2023/05/01 04:08:42;;;;;;;;;;;;;;;9.59;52.37;97885.00;5069609;28;20428;-66
2023/05/01 04:11:31;;;;;;;;;;;;;;;9.65;51.93;97882.97;5089001;28;20433;-67
2023/05/01 04:14:19;;;;;;;;;;;;;;;9.70;51.98;97885.59;5065184;28;19932;-67
2023/05/01 04:17:07;;;;;;;;;;;;;;;9.62;52.14;97876.25;5085995;28;20277;-67
2023/05/01 04:19:57;;;;;;;;;;;;;;;9.70;51.58;97883.66;5061766;28;19925;-72
2023/05/01 04:22:46;;;;;;;;;;;;;;;9.75;51.68;97880.03;5067258;28;19920;-66
2023/05/01 04:25:35;;;;;;;;;;;;;;;9.74;51.75;97883.84;5040744;28;19927;-68
2023/05/01 04:28:29;;;;;;;;;;;;;;;9.62;52.01;97881.66;5046450;28;19971;-66
2023/05/01 04:31:18;;;;;;;;;;;;;;;9.70;51.81;97882.88;5045278;28;19943;-67
2023/05/01 04:34:06;;;;;;;;;;;;;;;9.80;51.70;97890.78;5066017;28;19975;-67
2023/05/01 04:36:57;;;;;;;;;;;;;;;9.93;50.64;97880.97;5042380;28;19925;-67
2023/05/01 04:39:49;;;;;;;;;;;;;;;9.77;51.29;97875.09;5069510;28;20539;-67
2023/05/01 04:42:41;;;;;;;;;;;;;;;9.75;51.60;97885.47;5034814;28;19921;-68
2023/05/01 04:45:32;;;;;;;;;;;;;;;9.73;51.35;97871.38;5043279;28;19924;-67
2023/05/01 04:48:21;;;;;;;;;;;;;;;9.86;51.22;97894.19;5043253;28;19921;-67
2023/05/01 04:51:10;;;;;;;;;;;;;;;9.94;50.91;97882.56;5039081;28;20436;-67
2023/05/01 04:53:59;;;;;;;;;;;;;;;9.96;50.52;97881.16;5063580;28;19921;-67
2023/05/01 04:56:48;;;;;;;;;;;;;;;9.90;51.22;97898.66;5065404;28;19925;-68
2023/05/01 04:59:37;;;;;;;;;;;;;;;9.97;50.60;97882.78;5036325;28;20015;-67
2023/05/01 05:02:25;;;;;;;;;;;;;;;10.01;50.81;97884.84;5052746;28;19928;-68
2023/05/01 05:05:14;;;;;;;;;;;;;;;9.91;50.87;97878.56;5051336;28;20015;-66
2023/05/01 05:08:02;;;;;;;;;;;;;;;10.06;50.49;97879.31;5062378;28;20810;-67
2023/05/01 05:10:58;;;;;;;;;;;;;;;10.29;50.37;97880.94;5031305;28;19921;-66
2023/05/01 05:13:51;;;;;;;;;;;;;;;10.36;49.37;97875.06;5083055;28;19935;-67
2023/05/01 05:16:41;;;;;;;;;;;;;;;10.25;49.56;97876.44;5051224;28;20471;-67
2023/05/01 05:19:29;;;;;;;;;;;;;;;10.67;48.49;97867.72;5086292;28;20433;-67
2023/05/01 05:22:18;;;;;;;;;;;;;;;10.59;47.74;97865.75;5063324;28;20476;-68
2023/05/01 05:25:28;;;;;;;;;;;;;;;10.53;48.17;97874.38;5073656;28;19928;-70
2023/05/01 05:28:17;;;;;;;;;;;;;;;10.52;48.20;97872.75;5085738;28;19924;-71
2023/05/01 05:31:06;;;;;;;;;;;;;;;10.58;48.16;97871.50;5086981;27;19924;-70
2023/05/01 05:33:56;;;;;;;;;;;;;;;10.43;48.51;97875.41;5075416;28;21644;-70
2023/05/01 05:36:44;;;;;;;;;;;;;;;10.51;47.95;97873.88;5072580;28;20361;-69
2023/05/01 05:39:34;;;;;;;;;;;;;;;10.46;48.42;97875.59;5068377;28;19927;-70
2023/05/01 05:42:22;;;;;;;;;;;;;;;10.53;48.56;97867.00;5092143;28;19931;-71
2023/05/01 05:45:11;;;;;;;;;;;;;;;10.58;48.03;97864.16;5077226;28;20013;-72
2023/05/01 05:47:59;;;;;;;;;;;;;;;10.71;48.97;97862.47;5104443;27;19920;-69
2023/05/01 05:50:51;;;;;;;;;;;;;;;10.84;48.64;97855.31;5068391;28;19973;-72
2023/05/01 05:53:41;;;;;;;;;;;;;;;10.86;47.58;97859.31;5069432;28;19927;-70
2023/05/01 05:56:30;;;;;;;;;;;;;;;10.89;47.74;97853.28;5094638;27;19929;-68
2023/05/01 05:59:18;;;;;;;;;;;;;;;11.23;47.08;97855.28;5073935;28;19977;-72
2023/05/01 06:02:07;;;;;;;;;;;;;;;11.15;46.80;97833.53;5060381;28;19920;-76
2023/05/01 06:04:55;;;;;;;;;;;;;;;11.34;47.09;97847.63;5088557;28;19920;-72
2023/05/01 06:07:50;;;;;;;;;;;;;;;11.60;46.09;97849.56;5066285;28;19953;-71
2023/05/01 06:10:40;;;;;;;;;;;;;;;11.74;45.98;97850.22;5067845;28;19934;-70
2023/05/01 06:13:28;;;;;;;;;;;;;;;11.73;45.84;97851.34;5094800;27;20015;-71
2023/05/01 06:16:16;;;;;;;;;;;;;;;11.88;45.30;97847.34;5094241;27;19920;-70
2023/05/01 06:19:04;;;;;;;;;;;;;;;11.89;45.47;97836.16;5073058;28;20201;-71
2023/05/01 06:21:53;;;;;;;;;;;;;;;11.73;46.35;97835.03;5056934;28;20277;-70
2023/05/01 06:24:42;;;;;;;;;;;;;;;11.89;46.03;97836.16;5058649;28;20361;-70
2023/05/01 06:27:31;;;;;;;;;;;;;;;11.99;46.28;97844.00;5093048;27;19920;-70
2023/05/01 06:30:20;;;;;;;;;;;;;;;12.01;45.44;97836.31;5063700;28;19994;-69
2023/05/01 06:33:09;;;;;;;;;;;;;;;12.05;45.76;97844.66;5060770;28;19924;-70
2023/05/01 06:35:59;;;;;;;;;;;;;;;12.14;45.54;97842.69;5062820;28;19935;-70
2023/05/01 06:38:50;;;;;;;;;;;;;;;12.25;45.94;97837.69;5090466;28;19927;-70
2023/05/01 06:41:40;;;;;;;;;;;;;;;12.42;45.03;97845.06;5070381;28;19930;-70
2023/05/01 06:44:29;;;;;;;;;;;;;;;12.57;44.47;97834.44;5064960;28;19932;-72
2023/05/01 06:47:21;;;;;;;;;;;;;;;12.50;44.63;97828.66;5066156;28;19930;-72
2023/05/01 06:50:10;;;;;;;;;;;;;;;12.40;46.04;97834.47;5070968;28;20007;-71
2023/05/01 06:52:59;;;;;;;;;;;;;;;12.44;46.18;97829.19;5085871;27;19931;-70
2023/05/01 06:55:48;;;;;;;;;;;;;;;12.42;46.26;97836.88;5074725;28;19920;-70
2023/05/01 06:58:38;;;;;;;;;;;;;;;12.53;45.50;97832.69;5068955;28;19927;-71
2023/05/01 07:01:26;;;;;;;;;;;;;;;12.54;45.76;97832.34;5065463;28;19932;-71
2023/05/01 07:04:14;;;;;;;;;;;;;;;12.40;45.30;97823.56;5079717;28;19939;-71
2023/05/01 07:07:02;;;;;;;;;;;;;;;12.47;45.81;97834.00;5069904;28;20011;-71
2023/05/01 07:09:51;;;;;;;;;;;;;;;12.49;44.72;97831.72;5081338;28;19964;-71
2023/05/01 07:12:39;;;;;;;;;;;;;;;12.46;44.61;97830.44;5083060;28;19920;-71
2023/05/01 07:15:30;;;;;;;;;;;;;;;12.65;44.37;97830.06;5077184;28;20706;-71
2023/05/01 07:18:21;;;;;;;;;;;;;;;12.69;44.42;97833.75;5091807;28;19966;-71
2023/05/01 07:21:10;;;;;;;;;;;;;;;12.85;44.46;97825.81;5078968;28;19954;-71
2023/05/01 07:23:58;;;;;;;;;;;;;;;12.94;45.51;97826.56;5071039;28;20010;-71
2023/05/01 07:26:47;;;;;;;;;;;;;;;12.92;44.77;97822.56;5074654;28;20335;-71
2023/05/01 07:29:35;;;;;;;;;;;;;;;13.19;44.27;97811.19;5089453;27;20128;-69
2023/05/01 07:32:25;;;;;;;;;;;;;;;13.20;43.18;97801.06;5060463;28;19928;-71
2023/05/01 07:35:13;;;;;;;;;;;;;;;13.23;44.05;97806.69;5070971;28;19924;-71
2023/05/01 07:38:01;;;;;;;;;;;;;;;13.32;44.07;97798.47;5062699;28;19933;-71
2023/05/01 07:40:52;;;;;;;;;;;;;;;13.51;43.23;97796.06;5069744;28;19924;-71
2023/05/01 07:43:40;;;;;;;;;;;;;;;13.67;43.53;97792.72;5067820;28;19920;-71
2023/05/01 07:46:29;;;;;;;;;;;;;;;13.85;44.20;97792.25;5075374;28;19920;-71
2023/05/01 07:49:18;;;;;;;;;;;;;;;14.00;42.03;97790.81;5077712;28;20281;-71
2023/05/01 07:52:07;;;;;;;;;;;;;;;14.00;43.23;97785.34;5073778;28;20015;-72
2023/05/01 07:54:55;;;;;;;;;;;;;;;13.99;42.94;97786.50;5075971;28;19924;-71
2023/05/01 07:57:43;;;;;;;;;;;;;;;13.99;42.19;97783.75;5065315;28;19954;-70
2023/05/01 08:00:34;;;;;;;;;;;;;;;14.15;42.09;97790.19;5063735;28;19973;-72
2023/05/01 08:03:23;;;;;;;;;;;;;;;14.08;41.86;97784.47;5080636;28;20590;-71
2023/05/01 08:06:12;;;;;;;;;;;;;;;14.20;42.24;97777.44;5073771;28;19950;-71
2023/05/01 08:09:01;;;;;;;;;;;;;;;14.32;42.00;97772.00;5067517;28;19931;-72
2023/05/01 08:11:49;;;;;;;;;;;;;;;14.39;42.00;97773.06;5050739;28;20483;-71
2023/05/01 08:14:37;;;;;;;;;;;;;;;14.54;41.71;97770.81;5070027;28;20441;-72
2023/05/01 08:17:25;;;;;;;;;;;;;;;14.74;41.92;97775.38;5075435;28;20029;-72
2023/05/01 08:20:14;;;;;;;;;;;;;;;14.78;40.52;97762.63;5067842;28;20081;-71
2023/05/01 08:23:03;;;;;;;;;;;;;;;14.84;41.07;97768.66;5067632;28;19931;-71
2023/05/01 08:25:51;;;;;;;;;;;;;;;14.98;42.14;97765.59;5079704;28;19938;-71
2023/05/01 08:28:41;;;;;;;;;;;;;;;15.12;41.33;97769.53;5076320;28;20081;-70
2023/05/01 08:31:29;;;;;;;;;;;;;;;15.28;41.57;97772.34;5045358;28;19935;-71
2023/05/01 08:34:17;;;;;;;;;;;;;;;15.44;40.43;97770.50;5076938;28;19931;-68
2023/05/01 08:37:06;;;;;;;;;;;;;;;15.53;40.13;97764.88;5073375;28;19935;-69
2023/05/01 08:39:55;;;;;;;;;;;;;;;15.63;41.03;97777.34;5079097;28;19946;-66
2023/05/01 08:42:44;;;;;;;;;;;;;;;15.65;40.02;97767.59;5077353;28;19938;-68
2023/05/01 08:45:34;;;;;;;;;;;;;;;15.87;40.71;97763.56;5078462;28;20310;-69
2023/05/01 08:48:23;;;;;;;;;;;;;;;15.68;39.99;97768.88;5075545;28;19928;-70
2023/05/01 08:51:11;;;;;;;;;;;;;;;15.68;40.73;97766.13;5071692;28;19935;-70
2023/05/01 08:53:59;;;;;;;;;;;;;;;15.67;40.82;97770.81;5076029;28;19930;-71
2023/05/01 08:56:49;;;;;;;;;;;;;;;15.81;40.40;97761.38;5096533;28;19939;-69
2023/05/01 08:59:37;;;;;;;;;;;;;;;15.97;40.58;97760.28;5073859;28;20416;-68
2023/05/01 09:02:25;;;;;;;;;;;;;;;16.09;39.92;97766.88;5071093;28;19924;-70
2023/05/01 09:05:14;;;;;;;;;;;;;;;16.16;40.19;97773.31;5074472;28;19921;-69
2023/05/01 09:08:02;;;;;;;;;;;;;;;16.12;39.93;97766.94;5059420;28;19932;-71
2023/05/01 09:10:50;;;;;;;;;;;;;;;16.23;39.23;97772.72;5077542;28;19967;-73
2023/05/01 09:13:40;;;;;;;;;;;;;;;16.15;39.13;97763.50;5089084;28;19927;-70
2023/05/01 09:16:29;;;;;;;;;;;;;;;16.05;38.68;97774.19;5064941;28;20011;-72
2023/05/01 09:19:20;;;;;;;;;;;;;;;16.11;39.02;97764.56;5070163;28;19927;-71
2023/05/01 09:22:10;;;;;;;;;;;;;;;16.07;39.75;97763.66;5066042;28;20156;-73
2023/05/01 09:24:59;;;;;;;;;;;;;;;16.09;40.02;97766.88;5070955;28;20277;-70
2023/05/01 09:27:47;;;;;;;;;;;;;;;16.11;38.65;97765.34;5082068;28;20328;-71
2023/05/01 09:30:37;;;;;;;;;;;;;;;16.15;38.82;97763.50;5082014;28;19932;-70
2023/05/01 09:33:26;;;;;;;;;;;;;;;16.17;38.85;97768.63;5072053;28;20418;-71
2023/05/01 09:36:15;;;;;;;;;;;;;;;16.17;39.03;97768.63;5081716;28;19959;-70
2023/05/01 09:39:04;;;;;;;;;;;;;;;16.20;39.51;97779.72;5079244;28;19932;-71
2023/05/01 09:41:52;;;;;;;;;;;;;;;16.22;39.94;97765.63;5065551;28;19920;-70
2023/05/01 09:44:41;;;;;;;;;;;;;;;16.22;39.18;97766.44;5083743;28;19924;-73
2023/05/01 09:47:32;;;;;;;;;;;;;;;16.28;40.18;97777.16;5073971;28;20302;-70
2023/05/01 09:50:30;;;;;;;;;;;;;;;16.32;39.52;97769.81;5083483;28;19924;-70
2023/05/01 09:53:18;;;;;;;;;;;;;;;16.33;38.88;97771.41;5085604;28;20541;-70
2023/05/01 09:56:07;;;;;;;;;;;;;;;16.30;38.70;97772.09;5068317;28;20023;-72
2023/05/01 09:58:55;;;;;;;;;;;;;;;16.29;38.93;97771.31;5068578;28;19939;-70
2023/05/01 10:01:45;;;;;;;;;;;;;;;16.35;39.16;97777.31;5085270;28;20436;-70
2023/05/01 10:04:35;;;;;;;;;;;;;;;16.36;38.59;97774.25;5081262;28;19924;-71
2023/05/01 10:07:23;;;;;;;;;;;;;;;16.53;38.48;97769.56;5076783;28;19931;-69
2023/05/01 10:10:18;;;;;;;;;;;;;;;16.52;38.51;97767.97;5060050;28;20556;-71
2023/05/01 10:13:13;;;;;;;;;;;;;;;16.49;39.42;97769.47;5084475;28;19939;-71
2023/05/01 10:16:06;;;;;;;;;;;;;;;16.44;38.68;97767.78;5077037;28;20489;-71
2023/05/01 10:18:54;;;;;;;;;;;;;;;16.39;38.71;97776.25;5083699;28;19920;-72
2023/05/01 10:21:44;;;;;;;;;;;;;;;16.42;39.04;97763.81;5060750;28;19920;-70
2023/05/01 10:24:32;;;;;;;;;;;;;;;16.47;40.40;97771.78;5071595;28;19933;-68
2023/05/01 10:27:22;;;;;;;;;;;;;;;16.35;41.01;97769.09;5074256;28;19930;-68
2023/05/01 10:30:11;;;;;;;;;;;;;;;16.19;42.40;97778.13;5082308;27;19927;-70
2023/05/01 10:32:59;;;;;;;;;;;;;;;16.01;43.56;97778.78;5078268;28;19924;-70
2023/05/01 10:35:49;;;;;;;;;;;;;;;15.92;44.05;97774.22;5080300;28;19925;-69
2023/05/01 10:38:39;;;;;;;;;;;;;;;15.88;44.78;97780.78;5081807;28;19928;-70
2023/05/01 10:41:50;;;;;;;;;;;;;;;15.79;44.87;97774.66;5082892;28;19926;-71
2023/05/01 10:44:38;;;;;;;;;;;;;;;15.66;45.35;97777.44;5074273;28;19920;-70
2023/05/01 10:47:46;;;;;;;;;;;;;;;15.64;46.10;97779.72;5071122;28;20056;-71
2023/05/01 10:50:34;;;;;;;;;;;;;;;15.53;50.17;97784.06;5075147;28;20094;-69
2023/05/01 10:53:22;;;;;;;;;;;;;;;15.26;51.95;97784.81;5071100;28;20477;-74
2023/05/01 10:56:26;;;;;;;;;;;;;;;15.13;51.46;97779.34;5084459;28;20346;-71
2023/05/01 10:59:15;;;;;;;;;;;;;;;14.79;54.22;97788.81;5084586;28;19931;-71
2023/05/01 11:02:04;;;;;;;;;;;;;;;14.60;55.26;97792.13;5097221;27;20025;-71
2023/05/01 11:04:53;;;;;;;;;;;;;;;14.38;56.52;97795.22;5084070;28;19954;-70
2023/05/01 11:07:41;;;;;;;;;;;;;;;14.00;57.81;97799.00;5082946;28;19931;-71
2023/05/01 11:10:30;;;;;;;;;;;;;;;13.92;59.92;97794.44;5077601;28;19920;-70
2023/05/01 11:13:20;;;;;;;;;;;;;;;13.76;60.26;97793.47;5070272;28;19928;-71
2023/05/01 11:16:27;;;;;;;;;;;;;;;13.62;62.06;97797.25;5078252;28;19982;-70
2023/05/01 11:19:31;;;;;;;;;;;;;;;13.62;63.60;97799.19;5073173;28;20292;-68
2023/05/01 11:22:21;;;;;;;;;;;;;;;13.53;64.86;97795.72;5095755;28;19927;-68
2023/05/01 11:25:18;;;;;;;;;;;;;;;13.33;64.87;97794.59;5089237;28;19925;-69
2023/05/01 11:28:08;;;;;;;;;;;;;;;13.18;65.71;97795.16;5106087;27;19946;-70
2023/05/01 11:30:56;;;;;;;;;;;;;;;13.02;65.27;97800.38;5104418;28;19920;-69
2023/05/01 11:33:45;;;;;;;;;;;;;;;12.82;66.25;97794.53;5101906;27;19924;-69
2023/05/01 11:36:47;;;;;;;;;;;;;;;12.75;66.89;97790.75;5081160;28;19966;-68
2023/05/01 11:39:36;;;;;;;;;;;;;;;12.62;67.70;97795.28;5094359;28;19947;-69
2023/05/01 11:42:25;;;;;;;;;;;;;;;12.61;68.00;97790.16;5113507;27;19923;-68
2023/05/01 11:45:14;;;;;;;;;;;;;;;12.55;67.81;97787.63;5099027;28;19926;-68
2023/05/01 11:48:02;;;;;;;;;;;;;;;12.58;68.22;97792.41;5099802;27;19928;-69
2023/05/01 11:50:52;;;;;;;;;;;;;;;12.62;68.60;97792.53;5072447;28;19924;-68
2023/05/01 11:53:41;;;;;;;;;;;;;;;12.68;68.36;97801.38;5099896;28;19926;-67
2023/05/01 11:56:30;;;;;;;;;;;;;;;12.68;68.72;97796.72;5087954;28;19920;-67
2023/05/01 11:59:21;;;;;;;;;;;;;;;12.71;68.19;97801.50;5101482;28;19947;-69
2023/05/01 12:02:16;;;;;;;;;;;;;;;12.81;67.70;97794.88;5099497;28;20057;-69
2023/05/01 12:05:14;;;;;;;;;;;;;;;12.73;67.46;97792.97;5090335;28;19928;-70
2023/05/01 12:08:05;;;;;;;;;;;;;;;12.65;67.23;97791.13;5092813;27;19972;-69
2023/05/01 12:10:57;;;;;;;;;;;;;;;12.72;66.55;97797.63;5109467;27;19920;-67
2023/05/01 12:13:49;;;;;;;;;;;;;;;12.62;67.27;97794.47;5088085;28;19942;-68
2023/05/01 12:16:39;;;;;;;;;;;;;;;12.75;67.51;97796.19;5105087;27;19928;-69
2023/05/01 12:19:27;;;;;;;;;;;;;;;12.77;67.11;97793.94;5092310;28;19931;-69
2023/05/01 12:22:15;;;;;;;;;;;;;;;12.75;67.76;97801.66;5097840;28;19966;-68
2023/05/01 12:25:04;;;;;;;;;;;;;;;12.89;68.02;97791.31;5099513;28;19927;-69
2023/05/01 12:27:52;;;;;;;;;;;;;;;12.91;68.40;97794.50;5085601;28;19955;-68
2023/05/01 12:30:42;;;;;;;;;;;;;;;12.73;68.40;97777.44;5095538;28;19947;-67
2023/05/01 12:33:30;;;;;;;;;;;;;;;12.80;68.90;97798.75;5088029;28;19977;-68
2023/05/01 12:36:20;;;;;;;;;;;;;;;12.88;69.25;97788.91;5083816;28;19931;-69
2023/05/01 12:39:11;;;;;;;;;;;;;;;12.88;68.35;97792.44;5104885;27;19980;-69
2023/05/01 12:41:59;;;;;;;;;;;;;;;12.92;68.25;97790.66;5094181;28;19924;-69
2023/05/01 12:44:48;;;;;;;;;;;;;;;12.91;68.51;97789.06;5092085;27;20361;-69
2023/05/01 12:47:37;;;;;;;;;;;;;;;12.87;68.08;97788.09;5117954;27;20416;-67
2023/05/01 12:50:26;;;;;;;;;;;;;;;12.87;67.41;97785.38;5090440;28;19951;-68
2023/05/01 12:53:14;;;;;;;;;;;;;;;12.98;68.54;97791.25;5091951;28;20461;-67
2023/05/01 12:56:02;;;;;;;;;;;;;;;12.98;67.03;97791.25;5104421;27;19928;-69
2023/05/01 12:58:52;;;;;;;;;;;;;;;13.06;66.92;97791.22;5090798;28;19968;-69
2023/05/01 13:01:40;;;;;;;;;;;;;;;13.02;67.07;97787.53;5092674;28;20583;-68
2023/05/01 13:04:30;;;;;;;;;;;;;;;12.98;67.93;97783.88;5100067;27;19928;-68
2023/05/01 13:07:18;;;;;;;;;;;;;;;12.92;68.21;97777.00;5096578;28;20533;-68
2023/05/01 13:10:07;;;;;;;;;;;;;;;12.81;69.15;97778.53;5100360;28;20676;-69
2023/05/01 13:12:55;;;;;;;;;;;;;;;12.82;67.88;97780.13;5094497;28;20489;-68
2023/05/01 13:15:43;;;;;;;;;;;;;;;12.81;67.55;97781.25;5087772;28;20429;-68
2023/05/01 13:18:32;;;;;;;;;;;;;;;12.93;67.78;97775.09;5075478;28;20014;-66
2023/05/01 13:21:22;;;;;;;;;;;;;;;12.90;67.83;97771.09;5066729;28;19957;-65
2023/05/01 13:24:10;;;;;;;;;;;;;;;12.96;67.79;97766.25;5078126;28;20569;-65
2023/05/01 13:27:01;;;;;;;;;;;;;;;12.82;67.58;97775.47;5076670;28;19934;-67
2023/05/01 13:29:53;;;;;;;;;;;;;;;12.87;66.88;97773.69;5073501;28;19930;-67
2023/05/01 13:32:42;;;;;;;;;;;;;;;12.85;67.05;97774.81;5083745;28;20463;-67
2023/05/01 13:35:30;;;;;;;;;;;;;;;12.82;67.60;97777.38;5073923;28;19950;-68
2023/05/01 13:38:22;;;;;;;;;;;;;;;12.73;66.10;97782.91;5074922;28;19935;-70
2023/05/01 13:41:14;;;;;;;;;;;;;;;12.73;66.69;97776.63;5082377;28;19934;-67
2023/05/01 13:44:02;;;;;;;;;;;;;;;12.80;66.38;97780.44;5077340;28;19942;-76
2023/05/01 13:46:51;;;;;;;;;;;;;;;12.72;66.43;97777.75;5077834;28;20276;-66
2023/05/01 13:49:39;;;;;;;;;;;;;;;12.58;67.39;97780.72;5069859;28;19939;-69
2023/05/01 13:52:28;;;;;;;;;;;;;;;12.47;67.43;97777.56;5079524;28;19935;-66
2023/05/01 13:55:17;;;;;;;;;;;;;;;12.64;67.82;97781.34;5070533;28;20018;-67
2023/05/01 13:58:06;;;;;;;;;;;;;;;12.64;67.15;97767.72;5085322;28;19997;-69
2023/05/01 14:00:54;;;;;;;;;;;;;;;12.62;67.17;97769.94;5080103;28;20530;-65
2023/05/01 14:03:42;;;;;;;;;;;;;;;12.69;66.78;97772.97;5085545;28;20406;-69
2023/05/01 14:06:31;;;;;;;;;;;;;;;12.70;64.89;97772.66;5092021;27;19920;-65
2023/05/01 14:09:19;;;;;;;;;;;;;;;12.65;66.53;97775.56;5063359;28;19935;-69
2023/05/01 14:12:10;;;;;;;;;;;;;;;12.71;65.96;97771.50;5077158;28;19951;-67
2023/05/01 14:14:59;;;;;;;;;;;;;;;12.75;65.87;97769.72;5086934;28;20482;-68
2023/05/01 14:17:50;;;;;;;;;;;;;;;12.92;65.07;97768.84;5086236;28;20034;-66
2023/05/01 14:20:46;;;;;;;;;;;;;;;12.80;64.69;97777.72;5105488;27;19939;-69
2023/05/01 14:23:35;;;;;;;;;;;;;;;12.77;65.55;97766.66;5081958;28;19989;-65
2023/05/01 14:26:23;;;;;;;;;;;;;;;12.76;66.34;97770.53;5085995;28;19934;-66
2023/05/01 14:29:15;;;;;;;;;;;;;;;12.81;66.90;97767.63;5077204;28;19942;-67
2023/05/01 14:32:04;;;;;;;;;;;;;;;12.76;66.17;97770.53;5084508;28;20439;-68
2023/05/01 14:34:52;;;;;;;;;;;;;;;12.69;65.92;97767.53;5073276;28;20048;-63
2023/05/01 14:37:40;;;;;;;;;;;;;;;12.71;66.04;97774.22;5087384;28;20498;-68
2023/05/01 14:40:28;;;;;;;;;;;;;;;12.76;65.93;97765.88;5079851;28;19957;-66
2023/05/01 14:43:18;;;;;;;;;;;;;;;12.81;66.24;97767.63;5087170;28;19950;-70
2023/05/01 14:46:07;;;;;;;;;;;;;;;12.93;66.12;97769.63;5075559;28;20018;-66